sensor_id;sensor_type;location;lat;lon;timestamp;temperature;humidity
63899;HTU21D;50070;-32.946;-60.652;2023-02-01T00:00:57;32.31;35.45
63899;HTU21D;50070;-32.946;-60.652;2023-02-01T00:03:23;32.32;35.50
63899;HTU21D;50070;-32.946;-60.652;2023-02-01T00:06:00;32.10;35.53
63899;HTU21D;50070;-32.946;-60.652;2023-02-01T00:08:28;32.28;35.17
63899;HTU21D;50070;-32.946;-60.652;2023-02-01T00:10:59;31.93;35.75
63899;HTU21D;50070;-32.946;-60.652;2023-02-01T00:13:29;31.78;36.34
63899;HTU21D;50070;-32.946;-60.652;2023-02-01T00:16:03;31.80;36.16
63899;HTU21D;50070;-32.946;-60.652;2023-02-01T00:18:30;31.63;36.49
63899;HTU21D;50070;-32.946;-60.652;2023-02-01T00:20:57;31.76;36.28
63899;HTU21D;50070;-32.946;-60.652;2023-02-01T00:23:24;31.69;36.23
63899;HTU21D;50070;-32.946;-60.652;2023-02-01T00:25:51;31.57;36.33
63899;HTU21D;50070;-32.946;-60.652;2023-02-01T00:28:17;31.61;36.24
63899;HTU21D;50070;-32.946;-60.652;2023-02-01T00:30:44;31.61;36.49
63899;HTU21D;50070;-32.946;-60.652;2023-02-01T00:33:11;31.57;36.41
63899;HTU21D;50070;-32.946;-60.652;2023-02-01T00:35:38;31.60;36.33
63899;HTU21D;50070;-32.946;-60.652;2023-02-01T00:38:04;31.57;36.58
63899;HTU21D;50070;-32.946;-60.652;2023-02-01T00:40:31;31.66;36.34
63899;HTU21D;50070;-32.946;-60.652;2023-02-01T00:42:58;31.58;36.43
63899;HTU21D;50070;-32.946;-60.652;2023-02-01T00:45:25;31.82;35.82
63899;HTU21D;50070;-32.946;-60.652;2023-02-01T00:47:52;31.66;36.34
63899;HTU21D;50070;-32.946;-60.652;2023-02-01T00:50:19;31.51;36.19
63899;HTU21D;50070;-32.946;-60.652;2023-02-01T00:52:45;31.51;36.24
63899;HTU21D;50070;-32.946;-60.652;2023-02-01T00:55:15;31.60;36.09
63899;HTU21D;50070;-32.946;-60.652;2023-02-01T00:57:42;31.88;35.79
63899;HTU21D;50070;-32.946;-60.652;2023-02-01T01:00:09;31.75;36.10
63899;HTU21D;50070;-32.946;-60.652;2023-02-01T01:02:36;31.53;36.65
63899;HTU21D;50070;-32.946;-60.652;2023-02-01T01:05:03;31.53;36.73
63899;HTU21D;50070;-32.946;-60.652;2023-02-01T01:07:29;31.54;36.93
63899;HTU21D;50070;-32.946;-60.652;2023-02-01T01:09:56;31.35;37.62
63899;HTU21D;50070;-32.946;-60.652;2023-02-01T01:12:23;31.26;38.14
63899;HTU21D;50070;-32.946;-60.652;2023-02-01T01:14:50;31.46;38.10
63899;HTU21D;50070;-32.946;-60.652;2023-02-01T01:17:17;31.26;38.54
63899;HTU21D;50070;-32.946;-60.652;2023-02-01T01:19:43;31.12;38.94
63899;HTU21D;50070;-32.946;-60.652;2023-02-01T01:22:10;31.22;39.01
63899;HTU21D;50070;-32.946;-60.652;2023-02-01T01:24:37;31.23;39.12
63899;HTU21D;50070;-32.946;-60.652;2023-02-01T01:27:04;31.26;39.10
63899;HTU21D;50070;-32.946;-60.652;2023-02-01T01:29:31;31.01;39.72
63899;HTU21D;50070;-32.946;-60.652;2023-02-01T01:31:58;31.07;39.95
63899;HTU21D;50070;-32.946;-60.652;2023-02-01T01:34:24;31.04;40.43
63899;HTU21D;50070;-32.946;-60.652;2023-02-01T01:36:51;30.87;41.16
63899;HTU21D;50070;-32.946;-60.652;2023-02-01T01:39:18;30.77;41.63
63899;HTU21D;50070;-32.946;-60.652;2023-02-01T01:41:48;30.64;42.39
63899;HTU21D;50070;-32.946;-60.652;2023-02-01T01:47:18;30.42;43.48
63899;HTU21D;50070;-32.946;-60.652;2023-02-01T01:49:45;30.51;43.52
63899;HTU21D;50070;-32.946;-60.652;2023-02-01T01:52:12;30.49;43.61
63899;HTU21D;50070;-32.946;-60.652;2023-02-01T01:54:42;30.28;44.28
63899;HTU21D;50070;-32.946;-60.652;2023-02-01T01:57:33;30.36;44.25
63899;HTU21D;50070;-32.946;-60.652;2023-02-01T02:02:33;29.87;45.77
63899;HTU21D;50070;-32.946;-60.652;2023-02-01T02:05:01;29.98;45.61
63899;HTU21D;50070;-32.946;-60.652;2023-02-01T02:07:34;29.61;46.60
63899;HTU21D;50070;-32.946;-60.652;2023-02-01T02:10:04;29.57;47.04
63899;HTU21D;50070;-32.946;-60.652;2023-02-01T02:12:32;29.51;47.04
63899;HTU21D;50070;-32.946;-60.652;2023-02-01T02:14:59;29.22;47.89
63899;HTU21D;50070;-32.946;-60.652;2023-02-01T02:20:30;29.38;47.33
63899;HTU21D;50070;-32.946;-60.652;2023-02-01T02:29:24;29.07;48.07
63899;HTU21D;50070;-32.946;-60.652;2023-02-01T02:38:29;28.79;48.41
63899;HTU21D;50070;-32.946;-60.652;2023-02-01T02:41:02;28.70;48.89
63899;HTU21D;50070;-32.946;-60.652;2023-02-01T02:43:47;28.98;48.04
63899;HTU21D;50070;-32.946;-60.652;2023-02-01T02:46:35;29.04;47.41
63899;HTU21D;50070;-32.946;-60.652;2023-02-01T02:52:51;28.69;48.73
63899;HTU21D;50070;-32.946;-60.652;2023-02-01T02:55:38;28.67;48.97
63899;HTU21D;50070;-32.946;-60.652;2023-02-01T02:58:07;28.74;48.36
63899;HTU21D;50070;-32.946;-60.652;2023-02-01T03:00:52;28.94;48.21
63899;HTU21D;50070;-32.946;-60.652;2023-02-01T03:03:42;28.78;48.64
63899;HTU21D;50070;-32.946;-60.652;2023-02-01T03:06:27;28.77;48.94
63899;HTU21D;50070;-32.946;-60.652;2023-02-01T03:08:56;28.70;49.19
63899;HTU21D;50070;-32.946;-60.652;2023-02-01T03:11:24;28.62;49.40
63899;HTU21D;50070;-32.946;-60.652;2023-02-01T03:14:11;28.40;50.38
63899;HTU21D;50070;-32.946;-60.652;2023-02-01T03:16:46;28.31;50.47
63899;HTU21D;50070;-32.946;-60.652;2023-02-01T03:19:22;27.97;51.64
63899;HTU21D;50070;-32.946;-60.652;2023-02-01T03:22:12;28.44;50.24
63899;HTU21D;50070;-32.946;-60.652;2023-02-01T03:25:10;28.18;51.26
63899;HTU21D;50070;-32.946;-60.652;2023-02-01T03:28:08;28.02;51.60
63899;HTU21D;50070;-32.946;-60.652;2023-02-01T03:30:40;28.18;51.22
63899;HTU21D;50070;-32.946;-60.652;2023-02-01T03:33:13;28.26;51.10
63899;HTU21D;50070;-32.946;-60.652;2023-02-01T03:36:13;28.10;51.63
63899;HTU21D;50070;-32.946;-60.652;2023-02-01T03:39:04;28.29;51.21
63899;HTU21D;50070;-32.946;-60.652;2023-02-01T03:44:36;27.86;52.73
63899;HTU21D;50070;-32.946;-60.652;2023-02-01T03:47:06;28.02;52.39
63899;HTU21D;50070;-32.946;-60.652;2023-02-01T03:49:45;27.70;53.50
63899;HTU21D;50070;-32.946;-60.652;2023-02-01T03:52:22;27.51;54.38
63899;HTU21D;50070;-32.946;-60.652;2023-02-01T03:54:50;27.95;53.04
63899;HTU21D;50070;-32.946;-60.652;2023-02-01T03:57:22;27.93;53.20
63899;HTU21D;50070;-32.946;-60.652;2023-02-01T03:59:50;27.82;53.93
63899;HTU21D;50070;-32.946;-60.652;2023-02-01T04:02:17;27.69;54.25
63899;HTU21D;50070;-32.946;-60.652;2023-02-01T04:04:44;27.69;54.46
63899;HTU21D;50070;-32.946;-60.652;2023-02-01T04:07:12;27.78;54.31
63899;HTU21D;50070;-32.946;-60.652;2023-02-01T04:09:38;27.73;54.71
63899;HTU21D;50070;-32.946;-60.652;2023-02-01T04:12:05;27.79;54.71
63899;HTU21D;50070;-32.946;-60.652;2023-02-01T04:14:32;27.66;55.29
63899;HTU21D;50070;-32.946;-60.652;2023-02-01T04:16:59;27.71;55.49
63899;HTU21D;50070;-32.946;-60.652;2023-02-01T04:19:25;27.83;55.25
63899;HTU21D;50070;-32.946;-60.652;2023-02-01T04:21:52;27.43;56.82
63899;HTU21D;50070;-32.946;-60.652;2023-02-01T04:24:19;27.63;56.26
63899;HTU21D;50070;-32.946;-60.652;2023-02-01T04:26:46;27.12;58.00
63899;HTU21D;50070;-32.946;-60.652;2023-02-01T04:29:13;27.38;57.29
63899;HTU21D;50070;-32.946;-60.652;2023-02-01T04:31:39;27.35;57.38
63899;HTU21D;50070;-32.946;-60.652;2023-02-01T04:34:06;26.98;58.89
63899;HTU21D;50070;-32.946;-60.652;2023-02-01T04:36:33;27.17;58.16
63899;HTU21D;50070;-32.946;-60.652;2023-02-01T04:39:00;27.22;58.20
63899;HTU21D;50070;-32.946;-60.652;2023-02-01T04:41:27;26.87;59.37
63899;HTU21D;50070;-32.946;-60.652;2023-02-01T04:43:55;27.17;58.47
63899;HTU21D;50070;-32.946;-60.652;2023-02-01T04:46:21;27.10;58.96
63899;HTU21D;50070;-32.946;-60.652;2023-02-01T04:48:48;27.04;59.38
63899;HTU21D;50070;-32.946;-60.652;2023-02-01T04:51:15;27.23;58.86
63899;HTU21D;50070;-32.946;-60.652;2023-02-01T04:53:42;26.81;60.47
63899;HTU21D;50070;-32.946;-60.652;2023-02-01T04:56:08;26.81;60.31
63899;HTU21D;50070;-32.946;-60.652;2023-02-01T04:58:35;26.71;60.84
63899;HTU21D;50070;-32.946;-60.652;2023-02-01T05:01:03;26.62;61.46
63899;HTU21D;50070;-32.946;-60.652;2023-02-01T05:03:32;26.83;61.02
63899;HTU21D;50070;-32.946;-60.652;2023-02-01T05:05:59;26.83;61.17
63899;HTU21D;50070;-32.946;-60.652;2023-02-01T05:08:26;26.97;60.57
63899;HTU21D;50070;-32.946;-60.652;2023-02-01T05:10:54;26.99;60.64
63899;HTU21D;50070;-32.946;-60.652;2023-02-01T05:13:21;26.87;61.17
63899;HTU21D;50070;-32.946;-60.652;2023-02-01T05:16:06;26.81;61.42
63899;HTU21D;50070;-32.946;-60.652;2023-02-01T05:18:33;26.82;61.57
63899;HTU21D;50070;-32.946;-60.652;2023-02-01T05:21:00;26.80;61.67
63899;HTU21D;50070;-32.946;-60.652;2023-02-01T05:23:27;26.73;61.97
63899;HTU21D;50070;-32.946;-60.652;2023-02-01T05:25:57;27.01;60.96
63899;HTU21D;50070;-32.946;-60.652;2023-02-01T05:28:24;26.55;62.69
63899;HTU21D;50070;-32.946;-60.652;2023-02-01T05:30:51;26.53;62.95
63899;HTU21D;50070;-32.946;-60.652;2023-02-01T05:33:17;26.20;64.35
63899;HTU21D;50070;-32.946;-60.652;2023-02-01T05:35:44;26.12;64.59
63899;HTU21D;50070;-32.946;-60.652;2023-02-01T05:38:11;26.19;64.50
63899;HTU21D;50070;-32.946;-60.652;2023-02-01T05:40:38;26.48;63.42
63899;HTU21D;50070;-32.946;-60.652;2023-02-01T05:43:04;26.31;64.12
63899;HTU21D;50070;-32.946;-60.652;2023-02-01T05:45:31;26.39;63.87
63899;HTU21D;50070;-32.946;-60.652;2023-02-01T05:47:58;26.24;64.72
63899;HTU21D;50070;-32.946;-60.652;2023-02-01T05:50:25;26.54;63.59
63899;HTU21D;50070;-32.946;-60.652;2023-02-01T05:52:51;26.42;64.35
63899;HTU21D;50070;-32.946;-60.652;2023-02-01T05:55:18;26.26;64.94
63899;HTU21D;50070;-32.946;-60.652;2023-02-01T05:57:45;26.37;64.70
63899;HTU21D;50070;-32.946;-60.652;2023-02-01T06:00:12;25.72;67.40
63899;HTU21D;50070;-32.946;-60.652;2023-02-01T06:02:39;25.95;66.55
63899;HTU21D;50070;-32.946;-60.652;2023-02-01T06:05:07;26.02;66.21
63899;HTU21D;50070;-32.946;-60.652;2023-02-01T06:07:34;25.38;69.14
63899;HTU21D;50070;-32.946;-60.652;2023-02-01T06:10:00;25.71;67.81
63899;HTU21D;50070;-32.946;-60.652;2023-02-01T06:12:27;26.06;66.51
63899;HTU21D;50070;-32.946;-60.652;2023-02-01T06:14:54;26.03;66.56
63899;HTU21D;50070;-32.946;-60.652;2023-02-01T06:17:20;25.95;66.98
63899;HTU21D;50070;-32.946;-60.652;2023-02-01T06:19:47;26.12;66.34
63899;HTU21D;50070;-32.946;-60.652;2023-02-01T06:22:14;26.16;66.14
63899;HTU21D;50070;-32.946;-60.652;2023-02-01T06:24:41;25.78;67.84
63899;HTU21D;50070;-32.946;-60.652;2023-02-01T06:27:08;25.89;67.53
63899;HTU21D;50070;-32.946;-60.652;2023-02-01T06:29:35;25.93;67.56
63899;HTU21D;50070;-32.946;-60.652;2023-02-01T06:32:02;25.84;67.98
63899;HTU21D;50070;-32.946;-60.652;2023-02-01T06:34:29;25.81;67.96
63899;HTU21D;50070;-32.946;-60.652;2023-02-01T06:36:55;25.71;68.47
63899;HTU21D;50070;-32.946;-60.652;2023-02-01T06:39:22;25.95;67.59
63899;HTU21D;50070;-32.946;-60.652;2023-02-01T06:41:48;25.95;67.49
63899;HTU21D;50070;-32.946;-60.652;2023-02-01T06:44:16;26.13;66.70
63899;HTU21D;50070;-32.946;-60.652;2023-02-01T06:46:43;25.49;69.52
63899;HTU21D;50070;-32.946;-60.652;2023-02-01T06:49:09;25.73;68.56
63899;HTU21D;50070;-32.946;-60.652;2023-02-01T06:51:36;25.52;69.39
63899;HTU21D;50070;-32.946;-60.652;2023-02-01T06:54:03;25.89;67.89
63899;HTU21D;50070;-32.946;-60.652;2023-02-01T06:56:30;25.88;67.94
63899;HTU21D;50070;-32.946;-60.652;2023-02-01T06:58:57;25.87;68.09
63899;HTU21D;50070;-32.946;-60.652;2023-02-01T07:01:27;25.59;69.17
63899;HTU21D;50070;-32.946;-60.652;2023-02-01T07:03:54;25.31;70.42
63899;HTU21D;50070;-32.946;-60.652;2023-02-01T07:06:20;25.15;71.26
63899;HTU21D;50070;-32.946;-60.652;2023-02-01T07:08:48;25.30;70.49
63899;HTU21D;50070;-32.946;-60.652;2023-02-01T07:11:16;25.61;69.27
63899;HTU21D;50070;-32.946;-60.652;2023-02-01T07:13:43;25.25;70.71
63899;HTU21D;50070;-32.946;-60.652;2023-02-01T07:16:16;25.10;71.41
63899;HTU21D;50070;-32.946;-60.652;2023-02-01T07:18:43;24.92;72.32
63899;HTU21D;50070;-32.946;-60.652;2023-02-01T07:21:11;24.92;72.53
63899;HTU21D;50070;-32.946;-60.652;2023-02-01T07:23:38;25.03;71.84
63899;HTU21D;50070;-32.946;-60.652;2023-02-01T07:26:07;24.71;73.36
63899;HTU21D;50070;-32.946;-60.652;2023-02-01T07:28:35;24.60;73.90
63899;HTU21D;50070;-32.946;-60.652;2023-02-01T07:31:05;24.64;73.83
63899;HTU21D;50070;-32.946;-60.652;2023-02-01T07:33:32;24.73;73.24
63899;HTU21D;50070;-32.946;-60.652;2023-02-01T07:36:01;24.63;73.71
63899;HTU21D;50070;-32.946;-60.652;2023-02-01T07:38:28;24.42;74.65
63899;HTU21D;50070;-32.946;-60.652;2023-02-01T07:41:06;24.74;73.23
63899;HTU21D;50070;-32.946;-60.652;2023-02-01T07:43:34;24.72;73.09
63899;HTU21D;50070;-32.946;-60.652;2023-02-01T07:46:02;24.58;73.57
63899;HTU21D;50070;-32.946;-60.652;2023-02-01T07:48:29;24.56;73.76
63899;HTU21D;50070;-32.946;-60.652;2023-02-01T07:51:10;24.48;73.95
63899;HTU21D;50070;-32.946;-60.652;2023-02-01T07:53:38;24.47;73.92
63899;HTU21D;50070;-32.946;-60.652;2023-02-01T07:56:13;24.46;73.96
63899;HTU21D;50070;-32.946;-60.652;2023-02-01T07:58:40;24.54;73.45
63899;HTU21D;50070;-32.946;-60.652;2023-02-01T08:01:14;24.59;73.35
63899;HTU21D;50070;-32.946;-60.652;2023-02-01T08:03:48;24.47;73.48
63899;HTU21D;50070;-32.946;-60.652;2023-02-01T08:06:15;24.27;74.32
63899;HTU21D;50070;-32.946;-60.652;2023-02-01T08:08:42;24.40;73.69
63899;HTU21D;50070;-32.946;-60.652;2023-02-01T08:11:11;24.57;72.69
63899;HTU21D;50070;-32.946;-60.652;2023-02-01T08:13:37;24.49;73.06
63899;HTU21D;50070;-32.946;-60.652;2023-02-01T08:16:05;24.57;72.68
63899;HTU21D;50070;-32.946;-60.652;2023-02-01T08:18:34;24.36;73.36
63899;HTU21D;50070;-32.946;-60.652;2023-02-01T08:21:05;24.62;72.35
63899;HTU21D;50070;-32.946;-60.652;2023-02-01T08:23:34;24.49;72.61
63899;HTU21D;50070;-32.946;-60.652;2023-02-01T08:26:11;24.45;72.77
63899;HTU21D;50070;-32.946;-60.652;2023-02-01T08:28:46;24.33;73.15
63899;HTU21D;50070;-32.946;-60.652;2023-02-01T08:31:16;24.09;74.25
63899;HTU21D;50070;-32.946;-60.652;2023-02-01T08:33:44;24.20;73.61
63899;HTU21D;50070;-32.946;-60.652;2023-02-01T08:36:13;24.36;72.85
63899;HTU21D;50070;-32.946;-60.652;2023-02-01T08:38:40;24.65;71.48
63899;HTU21D;50070;-32.946;-60.652;2023-02-01T08:41:11;24.34;72.75
63899;HTU21D;50070;-32.946;-60.652;2023-02-01T08:43:39;24.45;72.35
63899;HTU21D;50070;-32.946;-60.652;2023-02-01T08:46:06;24.40;72.43
63899;HTU21D;50070;-32.946;-60.652;2023-02-01T08:48:34;24.38;72.47
63899;HTU21D;50070;-32.946;-60.652;2023-02-01T08:51:02;24.26;72.72
63899;HTU21D;50070;-32.946;-60.652;2023-02-01T08:53:29;24.65;70.92
63899;HTU21D;50070;-32.946;-60.652;2023-02-01T08:55:56;24.59;71.19
63899;HTU21D;50070;-32.946;-60.652;2023-02-01T08:58:23;24.42;71.80
63899;HTU21D;50070;-32.946;-60.652;2023-02-01T09:00:50;24.33;72.17
63899;HTU21D;50070;-32.946;-60.652;2023-02-01T09:03:17;24.33;72.08
63899;HTU21D;50070;-32.946;-60.652;2023-02-01T09:05:44;24.61;70.94
63899;HTU21D;50070;-32.946;-60.652;2023-02-01T09:08:12;24.63;70.79
63899;HTU21D;50070;-32.946;-60.652;2023-02-01T09:10:41;24.47;71.48
63899;HTU21D;50070;-32.946;-60.652;2023-02-01T09:13:08;24.57;71.25
63899;HTU21D;50070;-32.946;-60.652;2023-02-01T09:15:36;24.49;71.55
63899;HTU21D;50070;-32.946;-60.652;2023-02-01T09:18:03;24.42;71.80
63899;HTU21D;50070;-32.946;-60.652;2023-02-01T09:20:30;24.43;71.67
63899;HTU21D;50070;-32.946;-60.652;2023-02-01T09:22:57;24.40;71.67
63899;HTU21D;50070;-32.946;-60.652;2023-02-01T09:25:24;24.01;73.27
63899;HTU21D;50070;-32.946;-60.652;2023-02-01T09:27:50;24.45;71.50
63899;HTU21D;50070;-32.946;-60.652;2023-02-01T09:30:17;24.72;70.35
63899;HTU21D;50070;-32.946;-60.652;2023-02-01T09:32:44;24.57;70.77
63899;HTU21D;50070;-32.946;-60.652;2023-02-01T09:35:11;24.30;71.74
63899;HTU21D;50070;-32.946;-60.652;2023-02-01T09:37:38;24.35;71.48
63899;HTU21D;50070;-32.946;-60.652;2023-02-01T09:40:05;24.54;70.99
63899;HTU21D;50070;-32.946;-60.652;2023-02-01T09:42:39;24.45;71.19
63899;HTU21D;50070;-32.946;-60.652;2023-02-01T09:48:19;24.10;72.64
63899;HTU21D;50070;-32.946;-60.652;2023-02-01T09:50:55;24.21;72.14
63899;HTU21D;50070;-32.946;-60.652;2023-02-01T09:53:38;24.30;71.45
63899;HTU21D;50070;-32.946;-60.652;2023-02-01T09:56:23;24.49;70.90
63899;HTU21D;50070;-32.946;-60.652;2023-02-01T09:59:47;24.39;71.49
63899;HTU21D;50070;-32.946;-60.652;2023-02-01T10:01:48;24.24;71.90
63899;HTU21D;50070;-32.946;-60.652;2023-02-01T10:04:17;24.49;70.74
63899;HTU21D;50070;-32.946;-60.652;2023-02-01T10:07:09;24.63;70.00
63899;HTU21D;50070;-32.946;-60.652;2023-02-01T10:09:50;24.66;69.84
63899;HTU21D;50070;-32.946;-60.652;2023-02-01T10:24:02;24.00;72.15
63899;HTU21D;50070;-32.946;-60.652;2023-02-01T10:26:45;24.11;71.64
63899;HTU21D;50070;-32.946;-60.652;2023-02-01T10:29:19;23.97;72.35
63899;HTU21D;50070;-32.946;-60.652;2023-02-01T10:31:46;24.34;70.55
63899;HTU21D;50070;-32.946;-60.652;2023-02-01T10:34:30;24.42;70.35
63899;HTU21D;50070;-32.946;-60.652;2023-02-01T10:37:25;24.25;71.12
63899;HTU21D;50070;-32.946;-60.652;2023-02-01T10:39:49;24.46;70.24
63899;HTU21D;50070;-32.946;-60.652;2023-02-01T10:42:22;24.54;69.44
63899;HTU21D;50070;-32.946;-60.652;2023-02-01T10:44:50;24.54;69.66
63899;HTU21D;50070;-32.946;-60.652;2023-02-01T10:47:18;24.64;69.22
63899;HTU21D;50070;-32.946;-60.652;2023-02-01T10:54:54;24.68;69.01
63899;HTU21D;50070;-32.946;-60.652;2023-02-01T10:57:23;24.56;69.35
63899;HTU21D;50070;-32.946;-60.652;2023-02-01T10:59:56;24.73;68.53
63899;HTU21D;50070;-32.946;-60.652;2023-02-01T11:02:33;24.84;67.99
63899;HTU21D;50070;-32.946;-60.652;2023-02-01T11:07:29;24.83;68.00
63899;HTU21D;50070;-32.946;-60.652;2023-02-01T11:09:57;24.68;68.17
63899;HTU21D;50070;-32.946;-60.652;2023-02-01T11:12:44;24.86;67.77
63899;HTU21D;50070;-32.946;-60.652;2023-02-01T11:15:21;24.91;67.97
63899;HTU21D;50070;-32.946;-60.652;2023-02-01T11:17:50;24.79;68.10
63899;HTU21D;50070;-32.946;-60.652;2023-02-01T11:22:59;24.94;67.87
63899;HTU21D;50070;-32.946;-60.652;2023-02-01T11:25:32;24.71;68.68
63899;HTU21D;50070;-32.946;-60.652;2023-02-01T11:28:04;25.06;67.55
63899;HTU21D;50070;-32.946;-60.652;2023-02-01T11:30:39;24.79;68.52
63899;HTU21D;50070;-32.946;-60.652;2023-02-01T11:33:12;24.53;69.83
63899;HTU21D;50070;-32.946;-60.652;2023-02-01T11:35:40;24.62;69.52
63899;HTU21D;50070;-32.946;-60.652;2023-02-01T11:38:37;24.71;69.45
63899;HTU21D;50070;-32.946;-60.652;2023-02-01T11:41:24;24.71;69.58
63899;HTU21D;50070;-32.946;-60.652;2023-02-01T11:44:01;24.85;69.09
63899;HTU21D;50070;-32.946;-60.652;2023-02-01T11:46:42;25.09;67.96
63899;HTU21D;50070;-32.946;-60.652;2023-02-01T11:49:25;24.72;69.39
63899;HTU21D;50070;-32.946;-60.652;2023-02-01T11:52:32;24.72;69.52
63899;HTU21D;50070;-32.946;-60.652;2023-02-01T12:03:10;24.69;70.19
63899;HTU21D;50070;-32.946;-60.652;2023-02-01T12:06:05;24.68;70.54
63899;HTU21D;50070;-32.946;-60.652;2023-02-01T12:12:02;24.87;69.58
63899;HTU21D;50070;-32.946;-60.652;2023-02-01T12:23:19;24.61;71.22
63899;HTU21D;50070;-32.946;-60.652;2023-02-01T12:29:02;24.68;71.11
63899;HTU21D;50070;-32.946;-60.652;2023-02-01T12:31:37;24.75;70.92
63899;HTU21D;50070;-32.946;-60.652;2023-02-01T12:34:32;24.83;70.74
63899;HTU21D;50070;-32.946;-60.652;2023-02-01T12:40:07;25.49;68.49
63899;HTU21D;50070;-32.946;-60.652;2023-02-01T12:42:47;25.19;69.78
63899;HTU21D;50070;-32.946;-60.652;2023-02-01T12:48:21;25.08;70.55
63899;HTU21D;50070;-32.946;-60.652;2023-02-01T12:50:57;25.21;70.22
63899;HTU21D;50070;-32.946;-60.652;2023-02-01T12:56:13;25.51;69.25
63899;HTU21D;50070;-32.946;-60.652;2023-02-01T12:58:48;25.52;69.20
63899;HTU21D;50070;-32.946;-60.652;2023-02-01T13:04:49;25.73;68.41
63899;HTU21D;50070;-32.946;-60.652;2023-02-01T13:07:43;26.12;66.78
63899;HTU21D;50070;-32.946;-60.652;2023-02-01T13:10:25;26.01;67.29
63899;HTU21D;50070;-32.946;-60.652;2023-02-01T13:15:58;26.32;66.88
63899;HTU21D;50070;-32.946;-60.652;2023-02-01T13:18:34;26.51;66.14
63899;HTU21D;50070;-32.946;-60.652;2023-02-01T13:21:10;26.20;67.41
63899;HTU21D;50070;-32.946;-60.652;2023-02-01T13:23:41;26.25;67.52
63899;HTU21D;50070;-32.946;-60.652;2023-02-01T13:26:11;26.81;65.57
63899;HTU21D;50070;-32.946;-60.652;2023-02-01T13:28:51;27.01;65.39
63899;HTU21D;50070;-32.946;-60.652;2023-02-01T13:42:18;27.04;65.96
63899;HTU21D;50070;-32.946;-60.652;2023-02-01T13:44:56;27.22;65.32
63899;HTU21D;50070;-32.946;-60.652;2023-02-01T13:47:43;27.30;65.21
63899;HTU21D;50070;-32.946;-60.652;2023-02-01T13:52:52;27.68;64.12
63899;HTU21D;50070;-32.946;-60.652;2023-02-01T14:09:12;27.39;65.62
63899;HTU21D;50070;-32.946;-60.652;2023-02-01T14:11:50;27.21;66.24
63899;HTU21D;50070;-32.946;-60.652;2023-02-01T14:19:34;27.44;65.08
63899;HTU21D;50070;-32.946;-60.652;2023-02-01T14:24:52;27.69;64.37
63899;HTU21D;50070;-32.946;-60.652;2023-02-01T14:27:23;27.83;63.73
63899;HTU21D;50070;-32.946;-60.652;2023-02-01T14:29:59;28.42;61.89
63899;HTU21D;50070;-32.946;-60.652;2023-02-01T14:32:47;28.31;61.73
63899;HTU21D;50070;-32.946;-60.652;2023-02-01T14:35:19;28.12;62.50
63899;HTU21D;50070;-32.946;-60.652;2023-02-01T14:37:51;28.34;61.79
63899;HTU21D;50070;-32.946;-60.652;2023-02-01T14:49:37;28.42;62.38
63899;HTU21D;50070;-32.946;-60.652;2023-02-01T14:52:05;28.25;63.11
63899;HTU21D;50070;-32.946;-60.652;2023-02-01T14:54:32;28.49;62.23
63899;HTU21D;50070;-32.946;-60.652;2023-02-01T14:57:00;28.76;61.28
63899;HTU21D;50070;-32.946;-60.652;2023-02-01T14:59:29;28.46;61.62
63899;HTU21D;50070;-32.946;-60.652;2023-02-01T15:02:02;28.49;61.76
63899;HTU21D;50070;-32.946;-60.652;2023-02-01T15:04:42;28.40;61.79
63899;HTU21D;50070;-32.946;-60.652;2023-02-01T15:07:12;28.80;60.70
63899;HTU21D;50070;-32.946;-60.652;2023-02-01T15:09:45;28.84;61.15
63899;HTU21D;50070;-32.946;-60.652;2023-02-01T15:15:09;28.93;60.17
63899;HTU21D;50070;-32.946;-60.652;2023-02-01T15:17:37;28.83;61.12
63899;HTU21D;50070;-32.946;-60.652;2023-02-01T15:20:13;29.30;59.97
63899;HTU21D;50070;-32.946;-60.652;2023-02-01T15:22:42;29.17;60.25
63899;HTU21D;50070;-32.946;-60.652;2023-02-01T15:25:23;29.32;59.55
63899;HTU21D;50070;-32.946;-60.652;2023-02-01T15:27:51;29.08;60.44
63899;HTU21D;50070;-32.946;-60.652;2023-02-01T15:32:48;29.64;58.58
63899;HTU21D;50070;-32.946;-60.652;2023-02-01T15:35:38;29.42;59.07
63899;HTU21D;50070;-32.946;-60.652;2023-02-01T15:41:13;29.42;58.83
63899;HTU21D;50070;-32.946;-60.652;2023-02-01T15:46:34;29.29;59.12
63899;HTU21D;50070;-32.946;-60.652;2023-02-01T15:49:02;29.21;59.07
63899;HTU21D;50070;-32.946;-60.652;2023-02-01T15:51:31;29.20;59.20
63899;HTU21D;50070;-32.946;-60.652;2023-02-01T15:54:07;29.04;59.97
63899;HTU21D;50070;-32.946;-60.652;2023-02-01T15:56:40;29.24;59.34
63899;HTU21D;50070;-32.946;-60.652;2023-02-01T15:59:18;29.36;58.98
63899;HTU21D;50070;-32.946;-60.652;2023-02-01T16:01:46;29.50;58.62
63899;HTU21D;50070;-32.946;-60.652;2023-02-01T16:04:21;29.74;58.62
63899;HTU21D;50070;-32.946;-60.652;2023-02-01T16:06:57;30.05;57.10
63899;HTU21D;50070;-32.946;-60.652;2023-02-01T16:12:45;29.91;57.54
63899;HTU21D;50070;-32.946;-60.652;2023-02-01T16:15:13;30.08;57.50
63899;HTU21D;50070;-32.946;-60.652;2023-02-01T16:17:39;30.07;56.98
63899;HTU21D;50070;-32.946;-60.652;2023-02-01T16:20:07;30.32;56.42
63899;HTU21D;50070;-32.946;-60.652;2023-02-01T16:22:35;30.56;55.37
63899;HTU21D;50070;-32.946;-60.652;2023-02-01T16:25:01;30.32;55.92
63899;HTU21D;50070;-32.946;-60.652;2023-02-01T16:27:28;30.17;56.85
63899;HTU21D;50070;-32.946;-60.652;2023-02-01T16:29:55;30.23;56.32
63899;HTU21D;50070;-32.946;-60.652;2023-02-01T16:32:23;30.38;55.86
63899;HTU21D;50070;-32.946;-60.652;2023-02-01T16:34:50;30.67;55.33
63899;HTU21D;50070;-32.946;-60.652;2023-02-01T16:37:20;31.02;54.42
63899;HTU21D;50070;-32.946;-60.652;2023-02-01T16:39:49;30.40;55.74
63899;HTU21D;50070;-32.946;-60.652;2023-02-01T16:42:16;30.44;55.57
63899;HTU21D;50070;-32.946;-60.652;2023-02-01T16:44:43;30.55;55.89
63899;HTU21D;50070;-32.946;-60.652;2023-02-01T16:47:18;30.84;55.36
63899;HTU21D;50070;-32.946;-60.652;2023-02-01T16:49:44;30.81;54.59
63899;HTU21D;50070;-32.946;-60.652;2023-02-01T16:52:27;30.79;54.97
63899;HTU21D;50070;-32.946;-60.652;2023-02-01T16:54:54;31.34;54.03
63899;HTU21D;50070;-32.946;-60.652;2023-02-01T16:57:21;31.15;54.07
63899;HTU21D;50070;-32.946;-60.652;2023-02-01T16:59:53;31.74;52.30
63899;HTU21D;50070;-32.946;-60.652;2023-02-01T17:02:20;32.10;51.21
63899;HTU21D;50070;-32.946;-60.652;2023-02-01T17:04:47;31.68;52.27
63899;HTU21D;50070;-32.946;-60.652;2023-02-01T17:07:16;31.65;51.92
63899;HTU21D;50070;-32.946;-60.652;2023-02-01T17:09:42;32.08;51.44
63899;HTU21D;50070;-32.946;-60.652;2023-02-01T17:12:22;31.83;51.36
63899;HTU21D;50070;-32.946;-60.652;2023-02-01T17:14:57;32.01;51.22
63899;HTU21D;50070;-32.946;-60.652;2023-02-01T17:17:35;31.78;52.24
63899;HTU21D;50070;-32.946;-60.652;2023-02-01T17:20:03;32.04;51.51
63899;HTU21D;50070;-32.946;-60.652;2023-02-01T17:22:32;31.86;52.59
63899;HTU21D;50070;-32.946;-60.652;2023-02-01T17:24:59;31.98;52.30
63899;HTU21D;50070;-32.946;-60.652;2023-02-01T17:27:25;31.65;52.54
63899;HTU21D;50070;-32.946;-60.652;2023-02-01T17:29:52;31.58;52.91